createdAt,value
2022-12-15T00:04:30.698Z,97.0
2022-12-15T00:18:30.704Z,97.0
2022-12-15T00:32:30.735Z,97.0
2022-12-15T00:46:30.808Z,97.0
2022-12-15T01:00:30.798Z,98.0
2022-12-15T01:14:30.790Z,97.0
2022-12-15T01:28:30.774Z,97.0
2022-12-15T01:42:30.825Z,98.0
2022-12-15T01:56:35.458Z,97.0
2022-12-15T02:10:30.837Z,97.0
2022-12-15T02:24:30.873Z,97.0
2022-12-15T02:38:30.865Z,98.0
2022-12-15T02:52:30.884Z,98.0
2022-12-15T03:06:30.887Z,98.0
2022-12-15T03:20:30.900Z,96.0
2022-12-15T03:34:30.894Z,97.0
2022-12-15T03:48:30.903Z,96.0
2022-12-15T04:02:31.012Z,97.0
2022-12-15T04:16:30.987Z,94.0
2022-12-15T04:30:31.032Z,95.0
2022-12-15T04:44:30.963Z,96.0
2022-12-15T04:58:30.975Z,96.0
2022-12-15T05:13:31.403Z,97.0
2022-12-15T05:27:31.049Z,97.0
2022-12-15T05:41:31.113Z,97.0
2022-12-15T05:55:31.145Z,96.0
2022-12-15T06:09:31.112Z,96.0
2022-12-15T06:23:31.293Z,97.0
2022-12-15T06:37:31.119Z,96.0
2022-12-15T06:52:31.153Z,95.0
2022-12-15T07:07:31.180Z,95.0
2022-12-15T07:22:31.181Z,96.0
2022-12-15T07:37:31.173Z,95.0
2022-12-15T07:52:31.236Z,95.0
2022-12-15T08:07:31.241Z,95.0
2022-12-15T08:22:31.252Z,94.0
2022-12-15T08:37:31.258Z,92.0
2022-12-15T08:52:31.257Z,92.0
2022-12-15T09:07:31.293Z,92.0
2022-12-15T09:22:31.469Z,89.0
2022-12-15T09:37:31.330Z,83.0
2022-12-15T09:52:31.338Z,79.0
2022-12-15T10:07:31.353Z,76.0
2022-12-15T10:22:31.479Z,77.0
2022-12-15T10:37:31.488Z,77.0
2022-12-15T10:52:31.526Z,73.0
2022-12-15T11:07:31.532Z,73.0
2022-12-15T11:22:31.554Z,73.0
2022-12-15T11:38:31.585Z,71.0
2022-12-15T11:53:32.154Z,67.0
2022-12-15T12:08:32.127Z,67.0
2022-12-15T12:23:31.876Z,65.0
2022-12-15T12:38:32.124Z,68.0
2022-12-15T12:53:32.280Z,70.0
2022-12-15T13:08:31.905Z,72.0
2022-12-15T13:23:32.232Z,71.0
2022-12-15T13:38:31.924Z,72.0
2022-12-15T13:51:06.240Z,73.0
2022-12-15T14:06:06.325Z,76.0
2022-12-15T14:21:07.141Z,78.0
2022-12-15T14:36:07.171Z,82.0
2022-12-15T14:52:07.776Z,83.0
2022-12-15T15:07:07.385Z,88.0
2022-12-15T15:22:07.920Z,89.0
2022-12-15T15:37:07.978Z,92.0
2022-12-15T15:52:07.704Z,93.0
2022-12-15T16:06:07.710Z,94.0
2022-12-15T16:20:08.010Z,95.0
2022-12-15T16:34:07.866Z,95.0
2022-12-15T16:48:07.958Z,96.0
2022-12-15T17:02:08.127Z,96.0
2022-12-15T17:16:09.000Z,97.0
2022-12-15T17:30:08.723Z,97.0
2022-12-15T17:44:32.109Z,97.0
2022-12-15T17:58:09.102Z,97.0
2022-12-15T18:12:09.099Z,98.0
2022-12-15T18:26:09.108Z,98.0
2022-12-15T18:40:08.858Z,98.0
2022-12-15T18:54:08.792Z,98.0
2022-12-15T19:08:09.199Z,98.0
2022-12-15T19:22:09.285Z,98.0
2022-12-15T19:36:08.917Z,98.0
2022-12-15T19:50:08.927Z,99.0
2022-12-15T20:04:08.918Z,99.0
2022-12-15T20:18:08.913Z,99.0
2022-12-15T20:32:09.022Z,99.0
2022-12-15T20:46:08.962Z,99.0
2022-12-15T21:00:09.486Z,99.0
2022-12-15T21:14:09.051Z,99.0
2022-12-15T21:28:09.082Z,99.0
2022-12-15T21:42:09.179Z,99.0
2022-12-15T21:56:09.563Z,99.0
2022-12-15T22:10:10.186Z,99.0
2022-12-15T22:24:10.415Z,99.0
2022-12-15T22:38:10.346Z,99.0
2022-12-15T22:52:10.378Z,99.0
2022-12-15T23:06:10.368Z,99.0
2022-12-15T23:20:10.382Z,99.0
2022-12-15T23:35:10.372Z,99.0
2022-12-15T23:49:10.367Z,99.0
